createdAt,value
2022-09-16T00:02:22.226Z,10.95
2022-09-16T00:04:49.907Z,10.96
2022-09-16T00:07:20.286Z,10.97
2022-09-16T00:09:47.878Z,10.97
2022-09-16T00:12:15.498Z,10.98
2022-09-16T00:14:43.328Z,10.98
2022-09-16T00:17:10.947Z,10.99
2022-09-16T00:19:38.547Z,10.99
2022-09-16T00:22:06.236Z,10.99
2022-09-16T00:24:35.244Z,10.95
2022-09-16T00:27:02.846Z,10.96
2022-09-16T00:29:30.708Z,10.98
2022-09-16T00:31:58.312Z,10.97
2022-09-16T00:34:25.965Z,10.98
2022-09-16T00:36:53.562Z,10.97
2022-09-16T00:39:21.171Z,10.97
2022-09-16T00:41:50.160Z,10.96
2022-09-16T00:44:36.465Z,10.97
2022-09-16T00:47:04.174Z,10.98
2022-09-16T00:49:32.380Z,11.02
2022-09-16T00:52:02.919Z,11.01
2022-09-16T00:54:30.910Z,11.00
2022-09-16T00:57:01.308Z,11.00
2022-09-16T00:59:30.302Z,10.97
2022-09-16T01:01:59.880Z,10.98
2022-09-16T01:04:28.524Z,10.99
2022-09-16T01:06:56.469Z,10.96
2022-09-16T01:09:25.752Z,10.96
2022-09-16T01:11:53.716Z,10.96
2022-09-16T01:14:38.524Z,10.96
2022-09-16T01:17:12.087Z,10.98
2022-09-16T01:19:47.099Z,10.99
2022-09-16T01:22:22.244Z,10.96
2022-09-16T01:24:51.620Z,10.95
2022-09-16T01:27:45.429Z,10.96
2022-09-16T01:30:22.427Z,10.95
2022-09-16T01:33:01.473Z,10.94
2022-09-16T01:35:35.030Z,10.94
2022-09-16T01:38:09.970Z,10.93
2022-09-16T01:40:42.575Z,10.94
2022-09-16T01:43:17.252Z,10.93
2022-09-16T01:45:47.900Z,10.92
2022-09-16T01:48:23.342Z,10.96
2022-09-16T01:50:54.885Z,10.94
2022-09-16T01:53:24.150Z,10.95
2022-09-16T01:55:55.639Z,10.98
2022-09-16T01:58:26.384Z,10.97
2022-09-16T02:00:56.446Z,10.96
2022-09-16T02:03:29.005Z,10.98
2022-09-16T02:05:59.035Z,11.00
2022-09-16T02:08:28.807Z,10.98
2022-09-16T02:10:59.616Z,10.99
2022-09-16T02:13:29.450Z,11.00
2022-09-16T02:16:00.417Z,10.99
2022-09-16T02:18:33.175Z,11.00
2022-09-16T02:21:02.731Z,11.02
2022-09-16T02:23:33.402Z,11.02
2022-09-16T02:26:02.319Z,11.00
2022-09-16T02:28:32.094Z,11.02
2022-09-16T02:31:01.590Z,11.01
2022-09-16T02:33:32.542Z,11.02
2022-09-16T02:36:00.851Z,11.03
2022-09-16T02:38:32.939Z,11.05
2022-09-16T02:41:01.692Z,11.06
2022-09-16T02:43:29.867Z,11.05
2022-09-16T02:46:01.158Z,11.05
2022-09-16T02:48:35.171Z,11.06
2022-09-16T02:51:05.139Z,11.06
2022-09-16T02:53:38.228Z,11.06
2022-09-16T02:56:11.140Z,11.06
2022-09-16T02:58:39.306Z,11.06
2022-09-16T03:01:07.331Z,11.07
2022-09-16T03:03:36.302Z,11.09
2022-09-16T03:06:29.025Z,11.09
2022-09-16T03:08:59.211Z,11.10
2022-09-16T03:11:39.115Z,11.10
2022-09-16T03:14:27.191Z,11.09
2022-09-16T03:16:59.953Z,11.09
2022-09-16T03:19:32.922Z,11.10
2022-09-16T03:22:04.077Z,11.09
2022-09-16T03:24:36.719Z,11.10
2022-09-16T03:27:08.054Z,11.10
2022-09-16T03:29:39.787Z,11.09
2022-09-16T03:32:15.377Z,11.09
2022-09-16T03:34:46.717Z,11.10
2022-09-16T03:37:16.215Z,11.10
2022-09-16T03:39:44.535Z,11.11
2022-09-16T03:42:13.445Z,11.11
2022-09-16T03:44:41.638Z,11.10
2022-09-16T03:47:10.555Z,11.09
2022-09-16T03:49:38.421Z,11.08
2022-09-16T03:52:08.013Z,11.08
2022-09-16T03:54:36.036Z,11.09
2022-09-16T03:57:03.650Z,11.06
2022-09-16T03:59:32.390Z,11.08
2022-09-16T04:02:00.010Z,11.07
2022-09-16T04:04:27.833Z,11.07
2022-09-16T04:06:55.427Z,11.07
2022-09-16T04:09:24.400Z,11.08
2022-09-16T04:11:51.999Z,11.09
2022-09-16T04:14:20.207Z,11.09
2022-09-16T04:16:47.926Z,11.10
2022-09-16T04:19:15.514Z,11.09
2022-09-16T04:21:43.440Z,11.09
2022-09-16T04:24:13.399Z,11.08
2022-09-16T04:26:42.531Z,11.06
2022-09-16T04:29:10.338Z,11.06
2022-09-16T04:31:37.980Z,11.06
2022-09-16T04:34:05.957Z,11.06
2022-09-16T04:36:33.698Z,11.06
2022-09-16T04:39:01.438Z,11.05
2022-09-16T04:41:29.271Z,11.04
2022-09-16T04:43:59.058Z,11.05
2022-09-16T04:46:27.756Z,11.03
2022-09-16T04:48:56.031Z,11.02
2022-09-16T04:51:24.098Z,11.02
2022-09-16T04:53:51.849Z,11.02
2022-09-16T04:56:20.577Z,11.02
2022-09-16T04:58:48.758Z,11.03
2022-09-16T05:01:18.612Z,11.04
2022-09-16T05:03:47.396Z,11.06
2022-09-16T05:06:20.479Z,11.07
2022-09-16T05:08:48.578Z,11.07
2022-09-16T05:11:17.078Z,11.10
2022-09-16T05:13:45.061Z,11.12
2022-09-16T05:16:13.467Z,11.14
2022-09-16T05:18:43.297Z,11.16
2022-09-16T05:21:13.251Z,11.17
2022-09-16T05:23:45.926Z,11.18
2022-09-16T05:26:15.610Z,11.18
2022-09-16T05:28:43.386Z,11.22
2022-09-16T05:31:12.235Z,11.24
2022-09-16T05:33:40.377Z,11.26
2022-09-16T05:36:10.426Z,11.27
2022-09-16T05:38:38.129Z,11.29
2022-09-16T05:41:06.487Z,11.30
2022-09-16T05:43:34.989Z,11.32
2022-09-16T05:46:03.200Z,11.33
2022-09-16T05:48:31.110Z,11.33
2022-09-16T05:51:02.723Z,11.38
2022-09-16T05:53:32.583Z,11.38
2022-09-16T05:56:01.094Z,11.40
2022-09-16T05:58:29.413Z,11.43
2022-09-16T06:00:59.864Z,11.45
2022-09-16T06:03:27.885Z,11.48
2022-09-16T06:06:00.283Z,11.51
2022-09-16T06:08:29.018Z,11.53
2022-09-16T06:10:57.991Z,11.57
2022-09-16T06:13:25.587Z,11.61
2022-09-16T06:15:54.944Z,11.63
2022-09-16T06:18:23.111Z,11.65
2022-09-16T06:20:50.895Z,11.73
2022-09-16T06:23:19.175Z,11.76
2022-09-16T06:25:46.824Z,11.79
2022-09-16T06:28:15.845Z,11.85
2022-09-16T06:30:43.502Z,11.90
2022-09-16T06:33:12.823Z,11.93
2022-09-16T06:35:40.415Z,12.06
2022-09-16T06:38:08.071Z,12.17
2022-09-16T06:40:36.054Z,12.38
2022-09-16T06:43:06.431Z,12.40
2022-09-16T06:45:35.499Z,12.26
2022-09-16T06:48:05.892Z,12.21
2022-09-16T06:50:34.151Z,12.27
2022-09-16T06:53:02.060Z,12.24
2022-09-16T06:55:29.860Z,12.28
2022-09-16T06:57:57.871Z,12.28
2022-09-16T07:00:25.451Z,12.28
2022-09-16T07:02:54.404Z,12.28
2022-09-16T07:05:21.990Z,12.28
2022-09-16T07:07:49.950Z,12.31
2022-09-16T07:10:17.682Z,12.36
2022-09-16T07:12:45.274Z,12.38
2022-09-16T07:15:12.910Z,12.39
2022-09-16T07:17:43.332Z,12.40
2022-09-16T07:20:15.230Z,12.48
2022-09-16T07:22:42.815Z,12.52
2022-09-16T07:25:10.764Z,12.45
2022-09-16T07:27:38.367Z,12.45
2022-09-16T07:30:09.094Z,12.51
2022-09-16T07:32:38.419Z,12.52
2022-09-16T07:35:06.418Z,12.51
2022-09-16T07:37:38.261Z,12.51
2022-09-16T07:40:09.981Z,12.52
2022-09-16T07:42:37.602Z,12.53
2022-09-16T07:45:05.466Z,12.53
2022-09-16T07:47:33.265Z,12.56
2022-09-16T07:50:01.030Z,12.58
2022-09-16T07:52:29.790Z,12.61
2022-09-16T07:54:58.820Z,12.64
2022-09-16T07:57:26.419Z,12.69
2022-09-16T07:59:54.609Z,12.68
2022-09-16T08:02:22.287Z,12.75
2022-09-16T08:04:53.115Z,12.77
2022-09-16T08:07:20.771Z,12.74
2022-09-16T08:09:52.601Z,12.73
2022-09-16T08:12:22.631Z,12.76
2022-09-16T08:14:50.223Z,12.83
2022-09-16T08:17:19.966Z,12.90
2022-09-16T08:19:50.286Z,12.93
2022-09-16T08:22:17.897Z,12.95
2022-09-16T08:24:45.627Z,12.95
2022-09-16T08:27:13.235Z,12.93
2022-09-16T08:29:42.270Z,12.92
2022-09-16T08:32:10.101Z,12.99
2022-09-16T08:34:39.262Z,13.05
2022-09-16T08:37:06.849Z,13.01
2022-09-16T08:39:34.587Z,13.02
2022-09-16T08:42:23.306Z,13.03
2022-09-16T08:44:59.146Z,12.99
2022-09-16T08:47:34.475Z,12.96
2022-09-16T08:50:04.459Z,12.94
2022-09-16T08:52:33.480Z,12.91
2022-09-16T08:55:02.341Z,12.94
2022-09-16T08:57:32.222Z,12.97
2022-09-16T09:00:03.626Z,13.00
2022-09-16T09:05:15.227Z,13.10
2022-09-16T09:07:49.242Z,13.10
2022-09-16T09:10:20.298Z,13.17
2022-09-16T09:12:51.331Z,13.30
2022-09-16T09:15:28.524Z,13.41
2022-09-16T09:18:02.399Z,13.57
2022-09-16T09:20:35.232Z,13.60
2022-09-16T09:23:08.838Z,13.53
2022-09-16T09:25:40.902Z,13.62
2022-09-16T09:28:21.282Z,13.67
2022-09-16T09:30:55.498Z,13.75
2022-09-16T09:33:45.614Z,13.72
2022-09-16T09:36:23.071Z,13.77
2022-09-16T09:38:55.716Z,13.66
2022-09-16T09:41:26.592Z,13.54
2022-09-16T09:43:57.425Z,13.47
2022-09-16T09:46:31.210Z,13.41
2022-09-16T09:49:01.239Z,13.41
2022-09-16T09:51:37.355Z,13.40
2022-09-16T09:54:07.606Z,13.40
2022-09-16T09:56:37.326Z,13.51
2022-09-16T09:59:14.498Z,13.61
2022-09-16T10:01:43.801Z,13.75
2022-09-16T10:04:13.630Z,13.98
2022-09-16T10:06:41.985Z,14.10
2022-09-16T10:09:14.721Z,13.96
2022-09-16T10:11:47.516Z,13.80
2022-09-16T10:14:23.104Z,13.72
2022-09-16T10:16:52.797Z,13.80
2022-09-16T10:19:22.251Z,13.88
2022-09-16T10:21:51.682Z,13.88
2022-09-16T10:24:29.908Z,13.85
2022-09-16T10:26:57.846Z,13.77
2022-09-16T10:29:25.487Z,13.86
2022-09-16T10:31:55.113Z,14.01
2022-09-16T10:34:27.841Z,14.05
2022-09-16T10:37:05.797Z,13.96
2022-09-16T10:39:33.853Z,13.79
2022-09-16T10:42:01.670Z,13.65
2022-09-16T10:44:30.310Z,13.56
2022-09-16T10:47:01.651Z,13.58
2022-09-16T10:49:32.815Z,13.55
2022-09-16T10:52:08.675Z,13.51
2022-09-16T10:54:36.290Z,13.53
2022-09-16T10:57:03.974Z,13.42
2022-09-16T10:59:31.566Z,13.36
2022-09-16T11:02:08.029Z,13.35
2022-09-16T11:04:47.695Z,13.29
2022-09-16T11:07:21.123Z,13.15
2022-09-16T11:09:55.531Z,13.09
2022-09-16T11:12:50.032Z,13.10
2022-09-16T11:15:26.110Z,13.01
2022-09-16T11:18:02.875Z,12.96
2022-09-16T11:20:45.625Z,12.99
2022-09-16T11:23:20.611Z,12.98
2022-09-16T11:25:54.263Z,12.95
2022-09-16T11:28:34.735Z,12.87
2022-09-16T11:31:19.729Z,12.84
2022-09-16T11:33:50.198Z,12.86
2022-09-16T11:36:32.733Z,12.80
2022-09-16T11:39:05.944Z,12.76
2022-09-16T11:41:36.726Z,12.78
2022-09-16T11:44:15.908Z,12.75
2022-09-16T11:46:48.928Z,12.74
2022-09-16T11:49:28.654Z,12.71
2022-09-16T11:52:02.366Z,12.70
2022-09-16T11:54:37.274Z,12.70
2022-09-16T11:57:10.826Z,12.70
2022-09-16T11:59:43.203Z,12.67
2022-09-16T12:02:15.822Z,12.66
2022-09-16T12:04:47.612Z,12.63
2022-09-16T12:07:18.567Z,12.62
2022-09-16T12:09:47.982Z,12.68
2022-09-16T12:12:17.499Z,12.80
2022-09-16T12:14:47.336Z,12.91
2022-09-16T12:17:18.322Z,12.99
2022-09-16T12:19:50.342Z,13.07
2022-09-16T12:22:21.349Z,13.14
2022-09-16T12:24:52.918Z,13.18
2022-09-16T12:27:30.234Z,13.19
2022-09-16T12:29:59.825Z,13.15
2022-09-16T12:32:32.664Z,13.11
2022-09-16T12:35:03.968Z,13.13
2022-09-16T12:37:35.758Z,13.09
2022-09-16T12:40:04.461Z,13.14
2022-09-16T12:42:46.583Z,13.17
2022-09-16T12:45:24.667Z,13.23
2022-09-16T12:48:03.166Z,13.29
2022-09-16T12:50:46.799Z,13.33
2022-09-16T12:53:25.199Z,13.37
2022-09-16T12:55:57.187Z,13.32
2022-09-16T12:58:48.876Z,13.26
2022-09-16T13:01:22.315Z,13.32
2022-09-16T13:03:52.043Z,13.30
2022-09-16T13:06:23.942Z,13.28
2022-09-16T13:08:52.203Z,13.22
2022-09-16T13:12:16.574Z,13.11
2022-09-16T13:14:20.088Z,13.02
2022-09-16T13:16:53.865Z,12.96
2022-09-16T13:19:42.283Z,12.92
2022-09-16T13:22:18.523Z,12.95
2022-09-16T13:24:47.930Z,13.00
2022-09-16T13:27:25.662Z,13.04
2022-09-16T13:29:53.282Z,13.05
2022-09-16T13:32:27.999Z,13.13
2022-09-16T13:35:02.129Z,13.20
2022-09-16T13:37:31.239Z,13.23
2022-09-16T13:40:09.743Z,13.22
2022-09-16T13:42:37.510Z,13.23
2022-09-16T13:45:05.439Z,13.24
2022-09-16T13:47:40.202Z,13.24
2022-09-16T13:50:12.494Z,13.29
2022-09-16T13:52:42.676Z,13.35
2022-09-16T13:55:21.105Z,13.37
2022-09-16T13:58:00.278Z,13.46
2022-09-16T14:00:33.813Z,13.49
2022-09-16T14:03:14.344Z,13.45
2022-09-16T14:05:49.794Z,13.49
2022-09-16T14:08:22.599Z,13.50
2022-09-16T14:10:55.079Z,13.43
2022-09-16T14:13:23.752Z,13.40
2022-09-16T14:15:52.691Z,13.44
2022-09-16T14:18:22.350Z,13.39
2022-09-16T14:21:00.034Z,13.40
2022-09-16T14:23:29.623Z,13.41
2022-09-16T14:25:57.403Z,13.47
2022-09-16T14:28:25.928Z,13.49
2022-09-16T14:30:55.327Z,13.49
2022-09-16T14:33:29.066Z,13.48
2022-09-16T14:35:57.612Z,13.38
2022-09-16T14:38:44.925Z,13.18
2022-09-16T14:41:20.222Z,13.00
2022-09-16T14:43:47.864Z,12.92
2022-09-16T14:46:17.196Z,12.83
2022-09-16T14:48:45.387Z,12.80
2022-09-16T14:51:24.415Z,12.81
2022-09-16T14:54:11.571Z,12.85
2022-09-16T14:56:41.592Z,12.98
2022-09-16T14:59:11.374Z,13.07
2022-09-16T15:01:39.905Z,13.14
2022-09-16T15:04:10.458Z,13.19
2022-09-16T15:06:41.962Z,13.17
2022-09-16T15:09:15.084Z,13.18
2022-09-16T15:11:49.157Z,13.19
2022-09-16T15:14:17.230Z,13.16
2022-09-16T15:16:46.978Z,13.14
2022-09-16T15:19:21.348Z,13.13
2022-09-16T15:21:49.165Z,13.11
2022-09-16T15:24:19.073Z,13.13
2022-09-16T15:26:48.885Z,13.11
2022-09-16T15:29:27.979Z,13.09
2022-09-16T15:31:55.741Z,13.10
2022-09-16T15:34:24.491Z,13.09
2022-09-16T15:36:53.097Z,13.05
2022-09-16T15:39:25.044Z,13.05
2022-09-16T15:42:06.034Z,13.03
2022-09-16T15:44:37.282Z,13.03
2022-09-16T15:47:06.748Z,13.04
2022-09-16T15:49:36.594Z,13.03
2022-09-16T15:52:07.182Z,12.99
2022-09-16T15:54:38.273Z,12.95
2022-09-16T15:57:11.195Z,12.92
2022-09-16T15:59:42.299Z,12.84
2022-09-16T16:02:24.714Z,12.83
2022-09-16T16:04:52.592Z,12.82
2022-09-16T16:07:35.754Z,12.81
2022-09-16T16:10:12.210Z,12.78
2022-09-16T16:12:41.458Z,12.75
2022-09-16T16:15:09.479Z,12.73
2022-09-16T16:17:37.127Z,12.73
2022-09-16T16:20:04.944Z,12.72
2022-09-16T16:22:32.990Z,12.69
2022-09-16T16:25:00.674Z,12.64
2022-09-16T16:27:28.347Z,12.62
2022-09-16T16:29:57.402Z,12.62
2022-09-16T16:32:25.088Z,12.60
2022-09-16T16:34:54.707Z,12.61
2022-09-16T16:37:44.826Z,12.56
2022-09-16T16:40:10.594Z,12.53
2022-09-16T16:42:38.334Z,12.53
2022-09-16T16:45:08.323Z,12.51
2022-09-16T16:47:35.993Z,12.50
2022-09-16T16:50:03.652Z,12.45
2022-09-16T16:52:31.259Z,12.45
2022-09-16T16:54:58.897Z,12.43
2022-09-16T16:57:26.493Z,12.39
2022-09-16T16:59:54.092Z,12.34
2022-09-16T17:02:23.194Z,12.30
2022-09-16T17:04:50.911Z,12.27
2022-09-16T17:07:27.429Z,12.23
2022-09-16T17:09:56.866Z,12.17
2022-09-16T17:12:24.692Z,12.13
2022-09-16T17:14:52.367Z,12.09
2022-09-16T17:17:19.972Z,12.05
2022-09-16T17:19:48.974Z,12.04
2022-09-16T17:22:17.090Z,11.97
2022-09-16T17:24:44.697Z,11.93
2022-09-16T17:27:14.543Z,11.85
2022-09-16T17:29:42.142Z,11.83
2022-09-16T17:32:09.748Z,11.80
2022-09-16T17:34:37.430Z,11.76
2022-09-16T17:37:08.453Z,11.68
2022-09-16T17:39:36.405Z,11.67
2022-09-16T17:42:04.043Z,11.67
2022-09-16T17:44:31.630Z,11.68
2022-09-16T17:46:59.341Z,11.67
2022-09-16T17:49:27.236Z,11.69
2022-09-16T17:51:55.277Z,11.72
2022-09-16T17:54:24.323Z,11.71
2022-09-16T17:56:52.100Z,11.70
2022-09-16T17:59:19.972Z,11.71
2022-09-16T18:01:47.691Z,11.71
2022-09-16T18:04:15.435Z,11.71
2022-09-16T18:06:43.827Z,11.67
2022-09-16T18:09:11.501Z,11.65
2022-09-16T18:11:40.850Z,11.61
2022-09-16T18:14:09.025Z,11.59
2022-09-16T18:16:36.948Z,11.55
2022-09-16T18:19:04.711Z,11.55
2022-09-16T18:21:32.897Z,11.53
2022-09-16T18:24:02.361Z,11.49
2022-09-16T18:26:30.410Z,11.46
2022-09-16T18:29:10.468Z,11.44
2022-09-16T18:31:38.929Z,11.42
2022-09-16T18:34:06.787Z,11.42
2022-09-16T18:36:36.887Z,11.41
2022-09-16T18:39:05.221Z,11.40
2022-09-16T18:41:35.570Z,11.43
2022-09-16T18:44:07.680Z,11.39
2022-09-16T18:46:36.237Z,11.42
2022-09-16T18:49:04.521Z,11.43
2022-09-16T18:51:33.496Z,11.44
2022-09-16T18:54:02.274Z,11.44
2022-09-16T18:56:31.931Z,11.44
2022-09-16T18:59:20.458Z,11.44
2022-09-16T19:01:49.895Z,11.43
2022-09-16T19:04:18.553Z,11.43
2022-09-16T19:06:47.524Z,11.42
2022-09-16T19:09:16.032Z,11.39
2022-09-16T19:11:44.119Z,11.37
2022-09-16T19:14:13.173Z,11.35
2022-09-16T19:16:41.526Z,11.34
2022-09-16T19:19:11.443Z,11.39
2022-09-16T19:21:39.230Z,11.44
2022-09-16T19:24:08.106Z,11.43
2022-09-16T19:26:36.510Z,11.45
2022-09-16T19:29:06.745Z,11.44
2022-09-16T19:31:35.200Z,11.44
2022-09-16T19:34:02.854Z,11.44
2022-09-16T19:36:32.883Z,11.38
2022-09-16T19:39:00.728Z,11.34
2022-09-16T19:41:30.143Z,11.31
2022-09-16T19:43:58.999Z,11.26
2022-09-16T19:46:27.275Z,11.24
2022-09-16T19:48:55.561Z,11.23
2022-09-16T19:51:23.879Z,11.26
2022-09-16T19:53:53.451Z,11.29
2022-09-16T19:56:22.438Z,11.28
2022-09-16T19:58:50.384Z,11.27
2022-09-16T20:01:19.080Z,11.27
2022-09-16T20:03:49.405Z,11.27
2022-09-16T20:06:18.408Z,11.29
2022-09-16T20:08:46.837Z,11.31
2022-09-16T20:11:17.851Z,11.29
2022-09-16T20:13:48.534Z,11.25
2022-09-16T20:16:16.957Z,11.22
2022-09-16T20:18:47.424Z,11.17
2022-09-16T20:21:15.752Z,11.12
2022-09-16T20:23:45.001Z,11.05
2022-09-16T20:26:14.885Z,11.00
2022-09-16T20:28:44.317Z,10.93
2022-09-16T20:31:12.933Z,10.85
2022-09-16T20:33:41.098Z,10.82
2022-09-16T20:36:09.904Z,10.79
2022-09-16T20:38:38.543Z,10.76
2022-09-16T20:41:06.390Z,10.71
2022-09-16T20:43:34.232Z,10.68
2022-09-16T20:46:07.257Z,10.69
2022-09-16T20:48:35.169Z,10.67
2022-09-16T20:51:06.702Z,10.64
2022-09-16T20:53:34.758Z,10.61
2022-09-16T20:56:02.974Z,10.57
2022-09-16T20:58:30.586Z,10.58
2022-09-16T21:01:03.745Z,10.54
2022-09-16T21:03:32.788Z,10.52
2022-09-16T21:06:04.182Z,10.47
2022-09-16T21:08:34.193Z,10.46
2022-09-16T21:11:05.256Z,10.46
2022-09-16T21:13:33.257Z,10.49
2022-09-16T21:16:01.284Z,10.51
2022-09-16T21:18:29.272Z,10.52
2022-09-16T21:21:01.833Z,10.49
2022-09-16T21:23:29.888Z,10.47
2022-09-16T21:26:02.574Z,10.44
2022-09-16T21:28:30.215Z,10.43
2022-09-16T21:31:02.204Z,10.42
2022-09-16T21:33:30.651Z,10.42
2022-09-16T21:35:58.347Z,10.43
2022-09-16T21:38:28.326Z,10.45
2022-09-16T21:40:56.868Z,10.49
2022-09-16T21:43:25.242Z,10.52
2022-09-16T21:45:53.272Z,10.55
2022-09-16T21:48:20.957Z,10.56
2022-09-16T21:50:48.914Z,10.58
2022-09-16T21:53:16.506Z,10.60
2022-09-16T21:55:45.581Z,10.62
2022-09-16T21:58:13.516Z,10.64
2022-09-16T22:00:41.147Z,10.65
2022-09-16T22:03:08.900Z,10.66
2022-09-16T22:05:36.483Z,10.69
2022-09-16T22:08:04.745Z,10.69
2022-09-16T22:10:32.405Z,10.72
2022-09-16T22:13:01.390Z,10.74
2022-09-16T22:15:29.044Z,10.76
2022-09-16T22:17:56.649Z,10.79
2022-09-16T22:20:24.802Z,10.79
2022-09-16T22:22:52.434Z,10.80
2022-09-16T22:25:20.035Z,10.84
2022-09-16T22:27:47.648Z,10.84
2022-09-16T22:30:16.704Z,10.86
2022-09-16T22:32:44.291Z,10.86
2022-09-16T22:35:11.879Z,10.87
2022-09-16T22:37:39.540Z,10.90
2022-09-16T22:40:07.964Z,10.91
2022-09-16T22:42:35.652Z,10.92
2022-09-16T22:45:03.242Z,10.93
2022-09-16T22:47:32.350Z,10.91
2022-09-16T22:49:59.966Z,10.91
2022-09-16T22:52:27.570Z,10.90
2022-09-16T22:54:55.262Z,10.92
2022-09-16T22:57:22.846Z,10.95
2022-09-16T22:59:50.467Z,10.94
2022-09-16T23:02:18.234Z,10.92
2022-09-16T23:04:47.211Z,10.93
2022-09-16T23:07:14.790Z,10.89
2022-09-16T23:09:42.530Z,10.87
2022-09-16T23:12:11.110Z,10.86
2022-09-16T23:14:38.686Z,10.82
2022-09-16T23:17:06.318Z,10.81
2022-09-16T23:19:33.916Z,10.81
2022-09-16T23:22:02.940Z,10.80
2022-09-16T23:24:30.587Z,10.80
2022-09-16T23:26:58.176Z,10.79
2022-09-16T23:29:25.790Z,10.81
2022-09-16T23:31:53.369Z,10.82
2022-09-16T23:34:22.007Z,10.84
2022-09-16T23:36:50.126Z,10.87
2022-09-16T23:39:19.298Z,10.91
2022-09-16T23:41:47.241Z,10.92
2022-09-16T23:44:15.798Z,10.94
2022-09-16T23:46:43.630Z,10.96
2022-09-16T23:49:11.559Z,10.98
2022-09-16T23:51:39.187Z,11.00
2022-09-16T23:54:06.861Z,11.00
2022-09-16T23:56:35.848Z,11.02
2022-09-16T23:59:03.493Z,11.04
